sensor_id;sensor_type;location;lat;lon;timestamp;temperature;humidity
11446;DHT22;5779;64.178;15.432;2022-11-06T00:02:13;3.80;99.90
11446;DHT22;5779;64.178;15.432;2022-11-06T00:05:00;3.80;99.90
11446;DHT22;5779;64.178;15.432;2022-11-06T00:08:02;3.90;99.90
11446;DHT22;5779;64.178;15.432;2022-11-06T00:10:48;3.90;99.90
11446;DHT22;5779;64.178;15.432;2022-11-06T00:13:35;3.90;99.90
11446;DHT22;5779;64.178;15.432;2022-11-06T00:16:22;4.00;99.90
11446;DHT22;5779;64.178;15.432;2022-11-06T00:19:09;4.00;99.90
11446;DHT22;5779;64.178;15.432;2022-11-06T00:21:56;4.00;99.90
11446;DHT22;5779;64.178;15.432;2022-11-06T00:24:44;4.00;99.90
11446;DHT22;5779;64.178;15.432;2022-11-06T00:27:35;3.90;99.90
11446;DHT22;5779;64.178;15.432;2022-11-06T00:30:23;3.90;99.90
11446;DHT22;5779;64.178;15.432;2022-11-06T00:33:10;3.90;99.90
11446;DHT22;5779;64.178;15.432;2022-11-06T00:35:57;3.80;99.90
11446;DHT22;5779;64.178;15.432;2022-11-06T00:38:44;3.70;99.90
11446;DHT22;5779;64.178;15.432;2022-11-06T00:41:33;3.80;99.90
11446;DHT22;5779;64.178;15.432;2022-11-06T00:44:19;3.90;99.90
11446;DHT22;5779;64.178;15.432;2022-11-06T00:47:07;3.90;99.90
11446;DHT22;5779;64.178;15.432;2022-11-06T00:49:53;3.80;99.90
11446;DHT22;5779;64.178;15.432;2022-11-06T00:52:40;3.70;99.90
11446;DHT22;5779;64.178;15.432;2022-11-06T00:55:27;3.70;99.90
11446;DHT22;5779;64.178;15.432;2022-11-06T00:58:15;3.60;99.90
11446;DHT22;5779;64.178;15.432;2022-11-06T01:01:06;3.70;99.90
11446;DHT22;5779;64.178;15.432;2022-11-06T01:03:55;3.60;99.90
11446;DHT22;5779;64.178;15.432;2022-11-06T01:06:44;3.60;99.90
11446;DHT22;5779;64.178;15.432;2022-11-06T01:09:31;3.60;99.90
11446;DHT22;5779;64.178;15.432;2022-11-06T01:12:18;3.70;99.90
11446;DHT22;5779;64.178;15.432;2022-11-06T01:15:07;3.60;99.90
11446;DHT22;5779;64.178;15.432;2022-11-06T01:17:54;3.70;99.90
11446;DHT22;5779;64.178;15.432;2022-11-06T01:20:41;3.70;99.90
11446;DHT22;5779;64.178;15.432;2022-11-06T01:23:28;3.90;99.90
11446;DHT22;5779;64.178;15.432;2022-11-06T01:26:15;3.80;99.90
11446;DHT22;5779;64.178;15.432;2022-11-06T01:29:03;3.80;99.90
11446;DHT22;5779;64.178;15.432;2022-11-06T01:31:51;3.90;99.90
11446;DHT22;5779;64.178;15.432;2022-11-06T01:34:38;3.80;99.90
11446;DHT22;5779;64.178;15.432;2022-11-06T01:37:25;3.80;99.90
11446;DHT22;5779;64.178;15.432;2022-11-06T01:40:12;3.90;99.90
11446;DHT22;5779;64.178;15.432;2022-11-06T01:42:59;3.80;99.90
11446;DHT22;5779;64.178;15.432;2022-11-06T01:45:47;3.70;99.90
11446;DHT22;5779;64.178;15.432;2022-11-06T01:48:36;3.80;99.90
11446;DHT22;5779;64.178;15.432;2022-11-06T01:51:26;3.80;99.90
11446;DHT22;5779;64.178;15.432;2022-11-06T01:54:13;3.80;99.90
11446;DHT22;5779;64.178;15.432;2022-11-06T01:57:02;3.90;99.90
11446;DHT22;5779;64.178;15.432;2022-11-06T01:59:50;3.80;99.90
11446;DHT22;5779;64.178;15.432;2022-11-06T02:02:39;3.80;99.90
11446;DHT22;5779;64.178;15.432;2022-11-06T02:05:28;3.80;99.90
11446;DHT22;5779;64.178;15.432;2022-11-06T02:08:17;3.80;99.90
11446;DHT22;5779;64.178;15.432;2022-11-06T02:11:04;3.80;99.90
11446;DHT22;5779;64.178;15.432;2022-11-06T02:14:00;3.80;99.90
11446;DHT22;5779;64.178;15.432;2022-11-06T02:16:51;3.70;99.90
11446;DHT22;5779;64.178;15.432;2022-11-06T02:19:52;3.80;99.90
11446;DHT22;5779;64.178;15.432;2022-11-06T02:23:16;3.70;99.90
11446;DHT22;5779;64.178;15.432;2022-11-06T02:26:20;3.70;99.90
11446;DHT22;5779;64.178;15.432;2022-11-06T02:29:16;3.80;99.90
11446;DHT22;5779;64.178;15.432;2022-11-06T02:32:08;3.70;99.90
11446;DHT22;5779;64.178;15.432;2022-11-06T02:34:59;3.80;99.90
11446;DHT22;5779;64.178;15.432;2022-11-06T02:37:56;3.90;99.90
11446;DHT22;5779;64.178;15.432;2022-11-06T02:40:46;4.00;99.90
11446;DHT22;5779;64.178;15.432;2022-11-06T02:43:38;3.90;99.90
11446;DHT22;5779;64.178;15.432;2022-11-06T02:46:27;3.80;99.90
11446;DHT22;5779;64.178;15.432;2022-11-06T02:49:22;3.90;99.90
11446;DHT22;5779;64.178;15.432;2022-11-06T02:52:11;3.90;99.90
11446;DHT22;5779;64.178;15.432;2022-11-06T02:55:02;3.80;99.90
11446;DHT22;5779;64.178;15.432;2022-11-06T02:57:52;3.80;99.90
11446;DHT22;5779;64.178;15.432;2022-11-06T03:00:44;3.90;99.90
11446;DHT22;5779;64.178;15.432;2022-11-06T03:03:35;3.90;99.90
11446;DHT22;5779;64.178;15.432;2022-11-06T03:06:30;3.90;99.90
11446;DHT22;5779;64.178;15.432;2022-11-06T03:09:21;3.80;99.90
11446;DHT22;5779;64.178;15.432;2022-11-06T03:12:18;3.80;99.90
11446;DHT22;5779;64.178;15.432;2022-11-06T03:15:12;3.80;99.90
11446;DHT22;5779;64.178;15.432;2022-11-06T03:18:08;3.90;99.90
11446;DHT22;5779;64.178;15.432;2022-11-06T03:21:00;3.90;99.90
11446;DHT22;5779;64.178;15.432;2022-11-06T03:23:52;3.90;99.90
11446;DHT22;5779;64.178;15.432;2022-11-06T03:26:44;4.00;99.90
11446;DHT22;5779;64.178;15.432;2022-11-06T03:29:35;4.00;99.90
11446;DHT22;5779;64.178;15.432;2022-11-06T03:32:27;4.00;99.90
11446;DHT22;5779;64.178;15.432;2022-11-06T03:35:20;3.90;99.90
11446;DHT22;5779;64.178;15.432;2022-11-06T03:38:13;3.90;99.90
11446;DHT22;5779;64.178;15.432;2022-11-06T03:41:04;3.90;99.90
11446;DHT22;5779;64.178;15.432;2022-11-06T03:43:56;4.10;99.90
11446;DHT22;5779;64.178;15.432;2022-11-06T03:46:47;4.00;99.90
11446;DHT22;5779;64.178;15.432;2022-11-06T03:49:38;3.90;99.90
11446;DHT22;5779;64.178;15.432;2022-11-06T03:52:30;4.00;99.90
11446;DHT22;5779;64.178;15.432;2022-11-06T03:55:22;4.00;99.90
11446;DHT22;5779;64.178;15.432;2022-11-06T03:58:13;4.00;99.90
11446;DHT22;5779;64.178;15.432;2022-11-06T04:01:03;3.90;99.90
11446;DHT22;5779;64.178;15.432;2022-11-06T04:03:54;4.00;99.90
11446;DHT22;5779;64.178;15.432;2022-11-06T04:06:44;4.20;99.90
11446;DHT22;5779;64.178;15.432;2022-11-06T04:09:36;4.20;99.90
11446;DHT22;5779;64.178;15.432;2022-11-06T04:12:45;4.30;99.90
11446;DHT22;5779;64.178;15.432;2022-11-06T04:15:52;4.40;99.90
11446;DHT22;5779;64.178;15.432;2022-11-06T04:18:39;4.40;99.90
11446;DHT22;5779;64.178;15.432;2022-11-06T04:21:35;4.40;99.90
11446;DHT22;5779;64.178;15.432;2022-11-06T04:24:31;4.40;99.90
11446;DHT22;5779;64.178;15.432;2022-11-06T04:27:51;4.40;99.90
11446;DHT22;5779;64.178;15.432;2022-11-06T04:30:43;4.50;99.90
11446;DHT22;5779;64.178;15.432;2022-11-06T04:33:39;4.50;99.90
11446;DHT22;5779;64.178;15.432;2022-11-06T04:36:34;4.50;99.90
11446;DHT22;5779;64.178;15.432;2022-11-06T04:39:28;4.50;99.90
11446;DHT22;5779;64.178;15.432;2022-11-06T04:42:19;4.40;99.90
11446;DHT22;5779;64.178;15.432;2022-11-06T04:45:12;4.50;99.90
11446;DHT22;5779;64.178;15.432;2022-11-06T04:48:01;4.30;99.90
11446;DHT22;5779;64.178;15.432;2022-11-06T04:50:51;4.40;99.90
11446;DHT22;5779;64.178;15.432;2022-11-06T04:53:40;4.50;99.90
11446;DHT22;5779;64.178;15.432;2022-11-06T04:56:29;4.50;99.90
11446;DHT22;5779;64.178;15.432;2022-11-06T04:59:17;4.50;99.90
11446;DHT22;5779;64.178;15.432;2022-11-06T05:02:06;4.50;99.90
11446;DHT22;5779;64.178;15.432;2022-11-06T05:04:52;4.60;99.90
11446;DHT22;5779;64.178;15.432;2022-11-06T05:07:39;4.60;99.90
11446;DHT22;5779;64.178;15.432;2022-11-06T05:10:26;4.60;99.90
11446;DHT22;5779;64.178;15.432;2022-11-06T05:13:14;4.60;99.90
11446;DHT22;5779;64.178;15.432;2022-11-06T05:16:01;4.60;99.90
11446;DHT22;5779;64.178;15.432;2022-11-06T05:18:49;4.50;99.90
11446;DHT22;5779;64.178;15.432;2022-11-06T05:21:36;4.60;99.90
11446;DHT22;5779;64.178;15.432;2022-11-06T05:24:40;4.60;99.90
11446;DHT22;5779;64.178;15.432;2022-11-06T05:27:26;4.60;99.90
11446;DHT22;5779;64.178;15.432;2022-11-06T05:30:13;4.60;99.90
11446;DHT22;5779;64.178;15.432;2022-11-06T05:33:00;4.60;99.90
11446;DHT22;5779;64.178;15.432;2022-11-06T05:35:49;4.60;99.90
11446;DHT22;5779;64.178;15.432;2022-11-06T05:38:35;4.60;99.90
11446;DHT22;5779;64.178;15.432;2022-11-06T05:41:22;4.60;99.90
11446;DHT22;5779;64.178;15.432;2022-11-06T05:44:09;4.50;99.90
11446;DHT22;5779;64.178;15.432;2022-11-06T05:46:56;4.50;99.90
11446;DHT22;5779;64.178;15.432;2022-11-06T05:49:43;4.50;99.90
11446;DHT22;5779;64.178;15.432;2022-11-06T05:52:31;4.50;99.90
11446;DHT22;5779;64.178;15.432;2022-11-06T05:55:19;4.50;99.90
11446;DHT22;5779;64.178;15.432;2022-11-06T05:58:06;4.60;99.90
11446;DHT22;5779;64.178;15.432;2022-11-06T06:00:53;4.50;99.90
11446;DHT22;5779;64.178;15.432;2022-11-06T06:03:40;4.50;99.90
11446;DHT22;5779;64.178;15.432;2022-11-06T06:06:27;4.60;99.90
11446;DHT22;5779;64.178;15.432;2022-11-06T06:09:15;4.60;99.90
11446;DHT22;5779;64.178;15.432;2022-11-06T06:12:02;4.60;99.90
11446;DHT22;5779;64.178;15.432;2022-11-06T06:14:49;4.70;99.90
11446;DHT22;5779;64.178;15.432;2022-11-06T06:17:36;4.70;99.90
11446;DHT22;5779;64.178;15.432;2022-11-06T06:20:23;4.70;99.90
11446;DHT22;5779;64.178;15.432;2022-11-06T06:23:09;4.70;99.90
11446;DHT22;5779;64.178;15.432;2022-11-06T06:25:58;4.80;99.90
11446;DHT22;5779;64.178;15.432;2022-11-06T06:28:47;4.90;99.90
11446;DHT22;5779;64.178;15.432;2022-11-06T06:31:34;4.90;99.90
11446;DHT22;5779;64.178;15.432;2022-11-06T06:34:21;4.90;99.90
11446;DHT22;5779;64.178;15.432;2022-11-06T06:37:08;4.90;99.90
11446;DHT22;5779;64.178;15.432;2022-11-06T06:39:54;4.80;99.90
11446;DHT22;5779;64.178;15.432;2022-11-06T06:42:43;4.80;99.90
11446;DHT22;5779;64.178;15.432;2022-11-06T06:45:30;4.70;99.90
11446;DHT22;5779;64.178;15.432;2022-11-06T06:48:17;4.70;99.90
11446;DHT22;5779;64.178;15.432;2022-11-06T06:51:04;4.70;99.90
11446;DHT22;5779;64.178;15.432;2022-11-06T06:53:52;4.70;99.90
11446;DHT22;5779;64.178;15.432;2022-11-06T06:56:39;4.70;99.90
11446;DHT22;5779;64.178;15.432;2022-11-06T06:59:28;4.70;99.90
11446;DHT22;5779;64.178;15.432;2022-11-06T07:02:15;4.60;99.90
11446;DHT22;5779;64.178;15.432;2022-11-06T07:05:02;4.60;99.90
11446;DHT22;5779;64.178;15.432;2022-11-06T07:07:53;4.80;99.90
11446;DHT22;5779;64.178;15.432;2022-11-06T07:10:40;4.80;99.90
11446;DHT22;5779;64.178;15.432;2022-11-06T07:13:27;4.80;99.90
11446;DHT22;5779;64.178;15.432;2022-11-06T07:16:15;4.70;99.90
11446;DHT22;5779;64.178;15.432;2022-11-06T07:19:02;4.80;99.90
11446;DHT22;5779;64.178;15.432;2022-11-06T07:21:50;4.70;99.90
11446;DHT22;5779;64.178;15.432;2022-11-06T07:24:37;4.60;99.90
11446;DHT22;5779;64.178;15.432;2022-11-06T07:27:24;4.60;99.90
11446;DHT22;5779;64.178;15.432;2022-11-06T07:30:12;4.50;99.90
11446;DHT22;5779;64.178;15.432;2022-11-06T07:33:01;4.60;99.90
11446;DHT22;5779;64.178;15.432;2022-11-06T07:35:48;4.60;99.90
11446;DHT22;5779;64.178;15.432;2022-11-06T07:38:35;4.80;99.90
11446;DHT22;5779;64.178;15.432;2022-11-06T07:41:22;4.80;99.90
11446;DHT22;5779;64.178;15.432;2022-11-06T07:44:09;4.80;99.90
11446;DHT22;5779;64.178;15.432;2022-11-06T07:46:56;4.70;99.90
11446;DHT22;5779;64.178;15.432;2022-11-06T07:49:44;4.60;99.90
11446;DHT22;5779;64.178;15.432;2022-11-06T07:52:31;4.70;99.90
11446;DHT22;5779;64.178;15.432;2022-11-06T07:55:18;4.70;99.90
11446;DHT22;5779;64.178;15.432;2022-11-06T07:58:05;4.70;99.90
11446;DHT22;5779;64.178;15.432;2022-11-06T08:00:53;4.80;99.90
11446;DHT22;5779;64.178;15.432;2022-11-06T08:03:40;4.90;99.90
11446;DHT22;5779;64.178;15.432;2022-11-06T08:06:28;4.80;99.90
11446;DHT22;5779;64.178;15.432;2022-11-06T08:09:15;4.90;99.90
11446;DHT22;5779;64.178;15.432;2022-11-06T08:12:02;4.90;99.90
11446;DHT22;5779;64.178;15.432;2022-11-06T08:14:49;4.80;99.90
11446;DHT22;5779;64.178;15.432;2022-11-06T08:17:36;4.70;99.90
11446;DHT22;5779;64.178;15.432;2022-11-06T08:20:23;4.70;99.90
11446;DHT22;5779;64.178;15.432;2022-11-06T08:23:12;4.80;99.90
11446;DHT22;5779;64.178;15.432;2022-11-06T08:26:01;4.80;99.90
11446;DHT22;5779;64.178;15.432;2022-11-06T08:28:48;4.90;99.90
11446;DHT22;5779;64.178;15.432;2022-11-06T08:31:35;4.90;99.90
11446;DHT22;5779;64.178;15.432;2022-11-06T08:34:22;5.00;99.90
11446;DHT22;5779;64.178;15.432;2022-11-06T08:37:09;5.00;99.90
11446;DHT22;5779;64.178;15.432;2022-11-06T08:39:57;5.00;99.90
11446;DHT22;5779;64.178;15.432;2022-11-06T08:42:44;5.10;99.90
11446;DHT22;5779;64.178;15.432;2022-11-06T08:45:31;5.00;99.90
11446;DHT22;5779;64.178;15.432;2022-11-06T08:48:18;5.10;99.90
11446;DHT22;5779;64.178;15.432;2022-11-06T08:51:05;5.00;99.90
11446;DHT22;5779;64.178;15.432;2022-11-06T08:53:52;5.00;99.90
11446;DHT22;5779;64.178;15.432;2022-11-06T08:56:40;5.00;99.90
11446;DHT22;5779;64.178;15.432;2022-11-06T08:59:27;5.10;99.90
11446;DHT22;5779;64.178;15.432;2022-11-06T09:02:14;5.20;99.90
11446;DHT22;5779;64.178;15.432;2022-11-06T09:05:01;5.20;99.90
11446;DHT22;5779;64.178;15.432;2022-11-06T09:07:48;5.20;99.90
11446;DHT22;5779;64.178;15.432;2022-11-06T09:10:36;5.10;99.90
11446;DHT22;5779;64.178;15.432;2022-11-06T09:13:25;5.10;99.90
11446;DHT22;5779;64.178;15.432;2022-11-06T09:16:12;5.10;99.90
11446;DHT22;5779;64.178;15.432;2022-11-06T09:18:59;5.10;99.90
11446;DHT22;5779;64.178;15.432;2022-11-06T09:21:46;5.10;99.90
11446;DHT22;5779;64.178;15.432;2022-11-06T09:24:32;5.10;99.90
11446;DHT22;5779;64.178;15.432;2022-11-06T09:27:19;5.20;99.90
11446;DHT22;5779;64.178;15.432;2022-11-06T09:30:09;5.10;99.90
11446;DHT22;5779;64.178;15.432;2022-11-06T09:32:58;5.10;99.90
11446;DHT22;5779;64.178;15.432;2022-11-06T09:35:45;5.30;99.90
11446;DHT22;5779;64.178;15.432;2022-11-06T09:38:32;5.20;99.90
11446;DHT22;5779;64.178;15.432;2022-11-06T09:41:24;5.20;99.90
11446;DHT22;5779;64.178;15.432;2022-11-06T09:44:25;5.30;99.90
11446;DHT22;5779;64.178;15.432;2022-11-06T09:47:20;5.40;99.90
11446;DHT22;5779;64.178;15.432;2022-11-06T09:50:13;5.30;99.90
11446;DHT22;5779;64.178;15.432;2022-11-06T09:53:07;5.40;99.90
11446;DHT22;5779;64.178;15.432;2022-11-06T09:55:57;5.30;99.90
11446;DHT22;5779;64.178;15.432;2022-11-06T09:58:46;5.20;99.90
11446;DHT22;5779;64.178;15.432;2022-11-06T10:01:39;5.30;99.90
11446;DHT22;5779;64.178;15.432;2022-11-06T10:04:37;5.20;99.90
11446;DHT22;5779;64.178;15.432;2022-11-06T10:07:28;5.30;99.90
11446;DHT22;5779;64.178;15.432;2022-11-06T10:10:16;5.30;99.90
11446;DHT22;5779;64.178;15.432;2022-11-06T10:13:18;5.40;99.90
11446;DHT22;5779;64.178;15.432;2022-11-06T10:16:16;5.20;99.90
11446;DHT22;5779;64.178;15.432;2022-11-06T10:19:09;5.20;99.90
11446;DHT22;5779;64.178;15.432;2022-11-06T10:22:03;5.40;99.90
11446;DHT22;5779;64.178;15.432;2022-11-06T10:25:00;5.50;99.90
11446;DHT22;5779;64.178;15.432;2022-11-06T10:27:58;5.60;99.90
11446;DHT22;5779;64.178;15.432;2022-11-06T10:30:52;5.30;99.90
11446;DHT22;5779;64.178;15.432;2022-11-06T10:33:51;5.40;99.90
11446;DHT22;5779;64.178;15.432;2022-11-06T10:36:43;5.40;99.90
11446;DHT22;5779;64.178;15.432;2022-11-06T10:39:34;5.50;99.90
11446;DHT22;5779;64.178;15.432;2022-11-06T10:42:25;5.60;99.90
11446;DHT22;5779;64.178;15.432;2022-11-06T10:45:15;5.70;99.90
11446;DHT22;5779;64.178;15.432;2022-11-06T10:48:16;5.50;99.90
11446;DHT22;5779;64.178;15.432;2022-11-06T10:51:26;5.50;99.90
11446;DHT22;5779;64.178;15.432;2022-11-06T10:54:32;5.50;99.90
11446;DHT22;5779;64.178;15.432;2022-11-06T10:57:28;5.50;99.90
11446;DHT22;5779;64.178;15.432;2022-11-06T11:00:18;5.50;99.90
11446;DHT22;5779;64.178;15.432;2022-11-06T11:03:10;5.20;99.90
11446;DHT22;5779;64.178;15.432;2022-11-06T11:06:01;5.10;99.90
11446;DHT22;5779;64.178;15.432;2022-11-06T11:08:50;4.90;99.90
11446;DHT22;5779;64.178;15.432;2022-11-06T11:11:48;4.70;99.90
11446;DHT22;5779;64.178;15.432;2022-11-06T11:14:36;4.60;99.90
11446;DHT22;5779;64.178;15.432;2022-11-06T11:17:22;4.40;99.90
11446;DHT22;5779;64.178;15.432;2022-11-06T11:20:29;4.20;99.90
11446;DHT22;5779;64.178;15.432;2022-11-06T11:23:18;4.10;99.90
11446;DHT22;5779;64.178;15.432;2022-11-06T11:26:20;3.90;99.90
11446;DHT22;5779;64.178;15.432;2022-11-06T11:29:14;3.70;99.90
11446;DHT22;5779;64.178;15.432;2022-11-06T11:32:05;3.70;99.90
11446;DHT22;5779;64.178;15.432;2022-11-06T11:34:53;3.70;99.90
11446;DHT22;5779;64.178;15.432;2022-11-06T11:37:41;3.80;99.90
11446;DHT22;5779;64.178;15.432;2022-11-06T11:40:34;3.90;99.90
11446;DHT22;5779;64.178;15.432;2022-11-06T11:43:23;3.90;99.90
11446;DHT22;5779;64.178;15.432;2022-11-06T11:46:19;3.90;99.90
11446;DHT22;5779;64.178;15.432;2022-11-06T11:49:25;3.90;99.90
11446;DHT22;5779;64.178;15.432;2022-11-06T11:52:15;4.00;99.90
11446;DHT22;5779;64.178;15.432;2022-11-06T11:55:03;4.10;99.90
11446;DHT22;5779;64.178;15.432;2022-11-06T11:57:53;4.30;99.90
11446;DHT22;5779;64.178;15.432;2022-11-06T12:00:49;4.10;99.90
11446;DHT22;5779;64.178;15.432;2022-11-06T12:03:40;4.00;99.90
11446;DHT22;5779;64.178;15.432;2022-11-06T12:06:30;3.90;99.90
11446;DHT22;5779;64.178;15.432;2022-11-06T12:09:17;4.10;99.90
11446;DHT22;5779;64.178;15.432;2022-11-06T12:12:04;4.00;99.90
11446;DHT22;5779;64.178;15.432;2022-11-06T12:15:15;4.20;99.90
11446;DHT22;5779;64.178;15.432;2022-11-06T12:18:05;4.40;99.90
11446;DHT22;5779;64.178;15.432;2022-11-06T12:20:58;4.30;99.90
11446;DHT22;5779;64.178;15.432;2022-11-06T12:23:52;4.20;99.90
11446;DHT22;5779;64.178;15.432;2022-11-06T12:26:45;4.30;99.90
11446;DHT22;5779;64.178;15.432;2022-11-06T12:29:36;4.50;99.90
11446;DHT22;5779;64.178;15.432;2022-11-06T12:32:30;4.70;99.90
11446;DHT22;5779;64.178;15.432;2022-11-06T12:35:25;4.80;99.90
11446;DHT22;5779;64.178;15.432;2022-11-06T12:38:19;4.70;99.90
11446;DHT22;5779;64.178;15.432;2022-11-06T12:41:14;4.60;99.90
11446;DHT22;5779;64.178;15.432;2022-11-06T12:44:02;4.60;99.90
11446;DHT22;5779;64.178;15.432;2022-11-06T12:46:54;4.70;99.90
11446;DHT22;5779;64.178;15.432;2022-11-06T12:53:19;4.60;99.90
11446;DHT22;5779;64.178;15.432;2022-11-06T12:56:16;4.40;99.90
11446;DHT22;5779;64.178;15.432;2022-11-06T12:59:12;4.50;99.90
11446;DHT22;5779;64.178;15.432;2022-11-06T13:02:18;4.50;99.90
11446;DHT22;5779;64.178;15.432;2022-11-06T13:05:13;4.50;99.90
11446;DHT22;5779;64.178;15.432;2022-11-06T13:08:11;4.60;99.90
11446;DHT22;5779;64.178;15.432;2022-11-06T13:11:16;4.50;99.90
11446;DHT22;5779;64.178;15.432;2022-11-06T13:14:16;4.50;99.90
11446;DHT22;5779;64.178;15.432;2022-11-06T13:17:11;4.70;99.90
11446;DHT22;5779;64.178;15.432;2022-11-06T13:20:05;4.50;99.90
11446;DHT22;5779;64.178;15.432;2022-11-06T13:23:02;4.40;99.90
11446;DHT22;5779;64.178;15.432;2022-11-06T13:25:55;4.40;99.90
11446;DHT22;5779;64.178;15.432;2022-11-06T13:28:46;4.50;99.90
11446;DHT22;5779;64.178;15.432;2022-11-06T13:31:37;4.50;99.90
11446;DHT22;5779;64.178;15.432;2022-11-06T13:34:26;4.50;99.90
11446;DHT22;5779;64.178;15.432;2022-11-06T13:37:16;4.20;99.90
11446;DHT22;5779;64.178;15.432;2022-11-06T13:40:24;4.10;99.90
11446;DHT22;5779;64.178;15.432;2022-11-06T13:43:17;3.90;99.90
11446;DHT22;5779;64.178;15.432;2022-11-06T13:46:13;3.80;99.90
11446;DHT22;5779;64.178;15.432;2022-11-06T13:49:12;3.60;99.90
11446;DHT22;5779;64.178;15.432;2022-11-06T13:52:02;3.60;99.90
11446;DHT22;5779;64.178;15.432;2022-11-06T13:55:04;3.50;99.90
11446;DHT22;5779;64.178;15.432;2022-11-06T13:58:10;3.50;99.90
11446;DHT22;5779;64.178;15.432;2022-11-06T14:01:11;3.30;99.90
11446;DHT22;5779;64.178;15.432;2022-11-06T14:04:26;3.20;99.90
11446;DHT22;5779;64.178;15.432;2022-11-06T14:07:15;3.10;99.90
11446;DHT22;5779;64.178;15.432;2022-11-06T14:10:04;3.40;99.90
11446;DHT22;5779;64.178;15.432;2022-11-06T14:12:51;3.50;99.90
11446;DHT22;5779;64.178;15.432;2022-11-06T14:15:39;3.70;99.90
11446;DHT22;5779;64.178;15.432;2022-11-06T14:18:28;3.80;99.90
11446;DHT22;5779;64.178;15.432;2022-11-06T14:21:46;3.60;99.90
11446;DHT22;5779;64.178;15.432;2022-11-06T14:24:33;3.60;99.90
11446;DHT22;5779;64.178;15.432;2022-11-06T14:30:50;3.90;99.90
11446;DHT22;5779;64.178;15.432;2022-11-06T14:34:00;3.80;99.90
11446;DHT22;5779;64.178;15.432;2022-11-06T14:36:47;4.00;99.90
11446;DHT22;5779;64.178;15.432;2022-11-06T14:40:02;3.70;99.90
11446;DHT22;5779;64.178;15.432;2022-11-06T14:42:50;3.50;99.90
11446;DHT22;5779;64.178;15.432;2022-11-06T14:45:37;3.60;99.90
11446;DHT22;5779;64.178;15.432;2022-11-06T14:48:26;3.50;99.90
11446;DHT22;5779;64.178;15.432;2022-11-06T14:51:16;3.50;99.90
11446;DHT22;5779;64.178;15.432;2022-11-06T14:54:19;3.70;99.90
11446;DHT22;5779;64.178;15.432;2022-11-06T14:57:08;3.90;99.90
11446;DHT22;5779;64.178;15.432;2022-11-06T14:59:57;3.90;99.90
11446;DHT22;5779;64.178;15.432;2022-11-06T15:02:45;3.90;99.90
11446;DHT22;5779;64.178;15.432;2022-11-06T15:05:33;3.90;99.90
11446;DHT22;5779;64.178;15.432;2022-11-06T15:12:02;3.90;99.90
11446;DHT22;5779;64.178;15.432;2022-11-06T15:14:54;3.80;99.90
11446;DHT22;5779;64.178;15.432;2022-11-06T15:17:41;3.80;99.90
11446;DHT22;5779;64.178;15.432;2022-11-06T15:20:30;3.90;99.90
11446;DHT22;5779;64.178;15.432;2022-11-06T15:23:20;4.00;99.90
11446;DHT22;5779;64.178;15.432;2022-11-06T15:26:19;4.00;99.90
11446;DHT22;5779;64.178;15.432;2022-11-06T15:29:23;4.10;99.90
11446;DHT22;5779;64.178;15.432;2022-11-06T15:32:15;4.10;99.90
11446;DHT22;5779;64.178;15.432;2022-11-06T15:35:06;4.10;99.90
11446;DHT22;5779;64.178;15.432;2022-11-06T15:37:56;4.20;99.90
11446;DHT22;5779;64.178;15.432;2022-11-06T15:40:51;4.10;99.90
11446;DHT22;5779;64.178;15.432;2022-11-06T15:43:38;4.00;99.90
11446;DHT22;5779;64.178;15.432;2022-11-06T15:46:28;4.00;99.90
11446;DHT22;5779;64.178;15.432;2022-11-06T15:49:17;4.10;99.90
11446;DHT22;5779;64.178;15.432;2022-11-06T15:52:05;4.10;99.90
11446;DHT22;5779;64.178;15.432;2022-11-06T15:54:52;4.00;99.90
11446;DHT22;5779;64.178;15.432;2022-11-06T15:57:40;3.90;99.90
11446;DHT22;5779;64.178;15.432;2022-11-06T16:00:26;3.90;99.90
11446;DHT22;5779;64.178;15.432;2022-11-06T16:03:17;4.00;99.90
11446;DHT22;5779;64.178;15.432;2022-11-06T16:06:04;4.00;99.90
11446;DHT22;5779;64.178;15.432;2022-11-06T16:08:51;4.20;99.90
11446;DHT22;5779;64.178;15.432;2022-11-06T16:11:38;3.90;99.90
11446;DHT22;5779;64.178;15.432;2022-11-06T16:14:25;3.80;99.90
11446;DHT22;5779;64.178;15.432;2022-11-06T16:17:17;3.70;99.90
11446;DHT22;5779;64.178;15.432;2022-11-06T16:20:13;3.70;99.90
11446;DHT22;5779;64.178;15.432;2022-11-06T16:23:02;3.70;99.90
11446;DHT22;5779;64.178;15.432;2022-11-06T16:25:56;3.70;99.90
11446;DHT22;5779;64.178;15.432;2022-11-06T16:28:45;3.70;99.90
11446;DHT22;5779;64.178;15.432;2022-11-06T16:31:33;3.70;99.90
11446;DHT22;5779;64.178;15.432;2022-11-06T16:34:31;3.50;99.90
11446;DHT22;5779;64.178;15.432;2022-11-06T16:37:39;3.40;99.90
11446;DHT22;5779;64.178;15.432;2022-11-06T16:40:47;3.50;99.90
11446;DHT22;5779;64.178;15.432;2022-11-06T16:43:35;3.50;99.90
11446;DHT22;5779;64.178;15.432;2022-11-06T16:46:22;3.50;99.90
11446;DHT22;5779;64.178;15.432;2022-11-06T16:49:30;3.30;99.90
11446;DHT22;5779;64.178;15.432;2022-11-06T16:52:28;3.20;99.90
11446;DHT22;5779;64.178;15.432;2022-11-06T16:55:23;3.20;99.90
11446;DHT22;5779;64.178;15.432;2022-11-06T16:58:14;3.10;99.90
11446;DHT22;5779;64.178;15.432;2022-11-06T17:01:03;3.20;99.90
11446;DHT22;5779;64.178;15.432;2022-11-06T17:03:54;3.10;99.90
11446;DHT22;5779;64.178;15.432;2022-11-06T17:06:43;3.30;99.90
11446;DHT22;5779;64.178;15.432;2022-11-06T17:09:31;3.40;99.90
11446;DHT22;5779;64.178;15.432;2022-11-06T17:12:20;3.50;99.90
11446;DHT22;5779;64.178;15.432;2022-11-06T17:15:08;3.50;99.90
11446;DHT22;5779;64.178;15.432;2022-11-06T17:17:55;3.60;99.90
11446;DHT22;5779;64.178;15.432;2022-11-06T17:20:45;3.60;99.90
11446;DHT22;5779;64.178;15.432;2022-11-06T17:23:33;3.60;99.90
11446;DHT22;5779;64.178;15.432;2022-11-06T17:26:23;3.70;99.90
11446;DHT22;5779;64.178;15.432;2022-11-06T17:29:11;3.60;99.90
11446;DHT22;5779;64.178;15.432;2022-11-06T17:31:58;3.70;99.90
11446;DHT22;5779;64.178;15.432;2022-11-06T17:34:45;3.70;99.90
11446;DHT22;5779;64.178;15.432;2022-11-06T17:37:32;3.70;99.90
11446;DHT22;5779;64.178;15.432;2022-11-06T17:40:19;3.70;99.90
11446;DHT22;5779;64.178;15.432;2022-11-06T17:43:06;3.60;99.90
11446;DHT22;5779;64.178;15.432;2022-11-06T17:45:55;3.60;99.90
11446;DHT22;5779;64.178;15.432;2022-11-06T17:48:41;3.60;99.90
11446;DHT22;5779;64.178;15.432;2022-11-06T17:51:29;3.60;99.90
11446;DHT22;5779;64.178;15.432;2022-11-06T17:54:33;3.60;99.90
11446;DHT22;5779;64.178;15.432;2022-11-06T17:57:21;3.60;99.90
11446;DHT22;5779;64.178;15.432;2022-11-06T18:00:09;3.60;99.90
11446;DHT22;5779;64.178;15.432;2022-11-06T18:02:57;3.70;99.90
11446;DHT22;5779;64.178;15.432;2022-11-06T18:05:44;3.60;99.90
11446;DHT22;5779;64.178;15.432;2022-11-06T18:08:31;3.50;99.90
11446;DHT22;5779;64.178;15.432;2022-11-06T18:11:18;3.50;99.90
11446;DHT22;5779;64.178;15.432;2022-11-06T18:14:05;3.50;99.90
11446;DHT22;5779;64.178;15.432;2022-11-06T18:16:53;3.40;99.90
11446;DHT22;5779;64.178;15.432;2022-11-06T18:19:41;3.40;99.90
11446;DHT22;5779;64.178;15.432;2022-11-06T18:22:28;3.40;99.90
11446;DHT22;5779;64.178;15.432;2022-11-06T18:25:15;3.30;99.90
11446;DHT22;5779;64.178;15.432;2022-11-06T18:28:02;3.10;99.90